メインページ
METAR-TAF:

METAR-TAF

空港 :

モントリオール・ピエール・エリオット・トルドー国際空港

モントリオール・トルドー, ケベック州, カナダ

緯度: 45-28N, 経度: 073-45W, 海抜: 31m

現時点の気象観測

当レポートは1時間6分前の15:00(UTC)に作成
の風 7kt
気温 -16°C
湿度 78%
気圧 1034 hPa
視程: 19.3km
高度700ftの雲はほとんどない
高度1200ftの雲は散在している
高度12000ftの千切れ雲あり
高度21000ftの曇り
小雪

METAR: CYUL 181500Z 08007KT 12SM -SN FEW007 SCT012 BKN120 OVC210 M16/M19 A3052 RMK SF1SC3AC4CS1 SF TR PRESFR SLP340

時間: 11:06 (16:06 UTC)

予報

当レポートは1時間25分前の14:41(UTC)に作成
予報は18日の 15時(UTC)から 19日の 12時(UTC)まで有効
の風 10kt
視程: 10km
高度1200ftの雲はほとんどない
高度16000ftの千切れ雲あり
18日の 15時(UTC)から 18日の 22時(UTC)まで一時的に
視程: 10km
高度1200ftの千切れ雲あり
小雪
18日の 2200時(UTC)から
北東の風 12kt
高度1500ftの
小雪
18日の 2300時(UTC)から
北東の風 12kt、最大22ktの突風を伴う
視程: 1.2km
高度800ftの
小雪
確率 30%
19日の 00時(UTC)から 19日の 04時(UTC)まで
視程: 0.6km
高度400ftの
雪, 高い地吹雪
19日の 0500時(UTC)から
北東の風 15kt
高度1000ftの
小雪
19日の 05時(UTC)から 19日の 10時(UTC)まで一時的に
視程: 1.2km
高度800ftの
小雪
19日の 1000時(UTC)から
北/北東の風 15kt
高度1500ftの曇り
小雪

TAF: CYUL 181441Z 1815/1912 08010KT P6SM FEW012 BKN160 TEMPO 1815/1822 P6SM -SN BKN012 FM182200 05012KT 11/2SM -SN VV015 FM182300 04012G22KT 3/4SM -SN VV008 PROB30 1900/1904 3/8SM SN BLSN VV004 FM190500 04015KT 11/2SM -SN VV010 TEMPO 1905/1910 3/4SM -SN VV008 FM191000 03015KT 21/2SM -SN OVC015 RMK NXT FCST BY 181800Z

4,000以上の空港の気象観測と天気予報(METAR報とTAF報)

利用可能な観測所は地図上に黄色い丸と赤い丸で示す。

丸の上にカーソルを重ねると観測所名を参照できる。

次にクリックすると気象観測と天気予報を参照できる。

マップの切り替え:黒色「×」印の緑ボタンをクリックして拡大、「-」印の緑ボタンをクリックして縮小、緑色の三角印をクリックして隣りの地図に切り替え


METAR-TAF: